Time;durP1;ratioP1;P1;durP2;ratioP2;P2;SDS_P1;SDS_P2;PMS_P1;PMS_P2;Temp;Humidity;BMP_temperature;BMP_pressure;BME280_temperature;BME280_humidity;BME280_pressure;Samples;Min_cycle;Max_cycle;Signal;HPM_P1;HPM_P2
2023/09/20 00:01:14;;;;;;;;;3.00;1.00;;;;;20.47;67.17;100070.28;5085145;27;45369;-78
2023/09/20 00:03:40;;;;;;;;;1.67;1.67;;;;;20.39;67.72;100069.53;5086128;27;45243;-77
2023/09/20 00:06:07;;;;;;;;;2.33;2.33;;;;;20.33;67.65;100083.78;5086832;27;45271;-77
2023/09/20 00:08:34;;;;;;;;;1.33;1.33;;;;;20.26;67.49;100079.50;5086847;27;45278;-77
2023/09/20 00:11:01;;;;;;;;;1.33;1.33;;;;;20.24;67.83;100068.03;5086102;27;45545;-78
2023/09/20 00:13:27;;;;;;;;;0.00;0.00;;;;;20.25;67.88;100068.03;5082889;27;46311;-77
2023/09/20 00:15:55;;;;;;;;;1.67;1.67;;;;;20.22;68.13;100061.88;5068515;27;45596;-77
2023/09/20 00:18:24;;;;;;;;;2.67;1.67;;;;;20.23;68.05;100067.19;5078011;27;45523;-77
2023/09/20 00:20:50;;;;;;;;;1.00;1.00;;;;;20.19;67.96;100044.25;5084252;27;45316;-71
2023/09/20 00:23:21;;;;;;;;;1.67;1.33;;;;;20.23;68.14;100045.97;5086557;27;46202;-71
2023/09/20 00:25:49;;;;;;;;;1.33;1.33;;;;;20.22;68.43;100038.88;5083126;27;45413;-71
2023/09/20 00:28:17;;;;;;;;;1.67;1.00;;;;;20.23;68.01;100042.41;5068497;27;45417;-73
2023/09/20 00:30:45;;;;;;;;;2.67;1.67;;;;;20.17;68.24;100034.56;5087878;27;45533;-77
2023/09/20 00:33:12;;;;;;;;;1.00;1.00;;;;;20.14;68.03;100029.34;5085780;27;46142;-77
2023/09/20 00:35:41;;;;;;;;;1.33;1.33;;;;;20.14;68.08;100024.91;5086190;27;45336;-77
2023/09/20 00:38:10;;;;;;;;;1.00;1.00;;;;;19.99;68.04;100026.03;5082896;27;45358;-77
2023/09/20 00:40:37;;;;;;;;;2.33;2.33;;;;;20.05;68.73;100036.56;5068204;27;45483;-76
2023/09/20 00:43:06;;;;;;;;;0.67;0.67;;;;;20.05;68.74;100031.25;5087395;27;45256;-78
2023/09/20 00:45:32;;;;;;;;;1.67;1.33;;;;;20.08;68.71;100025.00;5086006;27;45655;-77
2023/09/20 00:47:59;;;;;;;;;0.00;0.00;;;;;20.09;68.44;100025.88;5085879;27;45659;-77
2023/09/20 00:50:31;;;;;;;;;0.67;0.67;;;;;20.12;69.03;100020.53;5087566;27;45515;-77
2023/09/20 00:52:58;;;;;;;;;2.33;1.67;;;;;20.13;68.62;100024.91;5086403;27;45470;-71
2023/09/20 00:55:27;;;;;;;;;2.00;2.00;;;;;20.12;68.63;100023.19;5066656;27;45521;-71
2023/09/20 00:57:56;;;;;;;;;2.00;1.67;;;;;20.02;68.42;100014.50;5068396;27;45488;-71
2023/09/20 01:00:29;;;;;;;;;1.67;1.67;;;;;19.90;68.86;100012.06;5077743;27;45513;-72
2023/09/20 01:02:57;;;;;;;;;1.67;1.67;;;;;19.84;68.82;100010.41;5086202;27;46255;-77
2023/09/20 01:05:25;;;;;;;;;1.67;1.67;;;;;19.80;68.80;99998.97;5084924;27;45388;-76
2023/09/20 01:07:56;;;;;;;;;1.33;1.33;;;;;19.87;68.67;100002.38;5087020;27;45430;-71
2023/09/20 01:10:24;;;;;;;;;2.33;1.00;;;;;19.90;68.77;100009.41;5087479;27;45633;-72
2023/09/20 01:12:54;;;;;;;;;2.00;1.00;;;;;19.91;68.23;100011.16;5085673;27;45486;-76
2023/09/20 01:15:24;;;;;;;;;1.00;0.67;;;;;19.94;67.89;100011.97;5067356;27;45446;-76
2023/09/20 01:17:57;;;;;;;;;2.33;1.67;;;;;19.95;67.77;100003.13;5067945;27;45492;-77
2023/09/20 01:20:24;;;;;;;;;2.00;2.00;;;;;19.92;68.35;99987.28;5088573;27;45571;-76
2023/09/20 01:22:51;;;;;;;;;1.67;1.67;;;;;19.92;68.62;99986.41;5090394;27;46214;-77
2023/09/20 01:25:24;;;;;;;;;1.67;1.67;;;;;19.92;68.37;99992.59;5089739;27;45461;-77
2023/09/20 01:27:55;;;;;;;;;3.33;2.00;;;;;19.91;68.21;99990.81;5086646;27;45423;-76
2023/09/20 01:30:25;;;;;;;;;1.00;1.00;;;;;19.86;67.99;99976.78;5089110;27;45278;-77
2023/09/20 01:32:53;;;;;;;;;1.67;1.00;;;;;19.89;68.05;99982.00;5086805;27;45619;-76
2023/09/20 01:35:19;;;;;;;;;1.67;1.67;;;;;19.87;67.72;99967.91;5089024;27;45569;-77
2023/09/20 01:37:45;;;;;;;;;2.00;2.00;;;;;19.80;67.72;99955.69;5090258;27;45457;-76
2023/09/20 01:40:18;;;;;;;;;0.67;0.67;;;;;19.80;68.31;99961.00;5088838;27;45325;-77
2023/09/20 01:42:44;;;;;;;;;2.00;2.00;;;;;19.78;68.17;99960.16;5088085;27;45313;-76
2023/09/20 01:45:16;;;;;;;;;3.00;2.00;;;;;19.75;68.72;99953.09;5089597;27;45423;-77
2023/09/20 01:47:44;;;;;;;;;1.67;1.67;;;;;19.70;68.58;99943.47;5090254;27;45516;-71
2023/09/20 01:50:19;;;;;;;;;0.67;0.67;;;;;19.77;68.78;99951.28;5065735;27;45351;-72
2023/09/20 01:52:49;;;;;;;;;1.00;1.00;;;;;19.70;68.43;99938.16;5079353;27;45425;-71
2023/09/20 01:55:18;;;;;;;;;1.67;1.67;;;;;19.70;68.83;99939.03;5079555;28;45287;-71
2023/09/20 01:57:54;;;;;;;;;2.67;2.00;;;;;19.73;68.60;99933.69;5079550;28;45535;-70
2023/09/20 02:00:23;;;;;;;;;1.00;1.00;;;;;19.66;68.06;99932.03;5080007;28;45512;-71
2023/09/20 02:02:53;;;;;;;;;2.67;1.00;;;;;19.61;68.63;99925.94;5061615;28;47778;-70
2023/09/20 02:05:20;;;;;;;;;1.33;1.33;;;;;19.62;68.56;99923.25;5079673;27;45490;-70
2023/09/20 02:07:50;;;;;;;;;1.00;1.00;;;;;19.58;68.66;99912.75;5079156;28;45502;-70
2023/09/20 02:10:16;;;;;;;;;2.00;2.00;;;;;19.61;68.65;99917.97;5078402;27;45581;-71
2023/09/20 02:12:56;;;;;;;;;2.33;2.00;;;;;19.56;68.55;99910.13;5079184;28;45300;-71
2023/09/20 02:15:24;;;;;;;;;2.00;2.00;;;;;19.61;68.58;99912.69;5079679;28;45412;-70
2023/09/20 02:17:50;;;;;;;;;2.00;2.00;;;;;19.53;68.56;99915.47;5079764;27;45445;-71
2023/09/20 02:20:20;;;;;;;;;2.00;2.00;;;;;19.53;68.62;99911.94;5079577;28;45480;-71
2023/09/20 02:22:51;;;;;;;;;2.00;2.00;;;;;19.53;68.66;99910.16;5079094;28;45455;-70
2023/09/20 02:25:20;;;;;;;;;1.00;1.00;;;;;19.54;68.64;99911.06;5079102;28;45345;-70
2023/09/20 02:27:50;;;;;;;;;1.00;1.00;;;;;19.55;68.36;99896.91;5078594;28;45225;-71
2023/09/20 02:30:24;;;;;;;;;1.00;1.00;;;;;19.44;68.60;99895.31;5079320;28;45478;-76
2023/09/20 02:32:57;;;;;;;;;2.00;2.00;;;;;19.35;69.28;99886.63;5078996;27;45478;-77
2023/09/20 02:35:24;;;;;;;;;1.00;1.00;;;;;19.28;69.23;99888.53;5079268;28;45374;-77
2023/09/20 02:37:51;;;;;;;;;1.33;1.33;;;;;19.20;70.25;99882.44;5060699;28;45461;-77
2023/09/20 02:40:26;;;;;;;;;1.00;1.00;;;;;19.13;70.44;99883.47;5079088;28;45248;-77
2023/09/20 02:42:54;;;;;;;;;1.00;1.00;;;;;19.13;70.08;99899.34;5079170;28;45516;-77
2023/09/20 02:45:23;;;;;;;;;2.00;2.00;;;;;19.13;70.13;99900.22;5078868;28;45486;-71
2023/09/20 02:47:49;;;;;;;;;3.00;2.00;;;;;19.06;69.95;99898.59;5078885;28;45158;-70
2023/09/20 02:50:18;;;;;;;;;1.00;1.00;;;;;19.10;69.67;99894.09;5060809;28;45549;-71
2023/09/20 02:52:45;;;;;;;;;2.00;2.00;;;;;19.07;69.54;99909.13;5078501;28;46080;-70
2023/09/20 02:55:13;;;;;;;;;2.67;1.33;;;;;19.07;69.58;99914.41;5078530;27;45438;-77
2023/09/20 02:57:40;;;;;;;;;2.00;2.00;;;;;19.11;69.84;99906.44;5077349;27;45346;-70
2023/09/20 03:00:15;;;;;;;;;2.00;2.00;;;;;19.15;69.25;99914.31;5078810;28;45387;-77
2023/09/20 03:02:45;;;;;;;;;2.00;1.00;;;;;19.13;68.95;99905.50;5078448;28;45566;-77
2023/09/20 03:05:15;;;;;;;;;1.00;1.00;;;;;19.07;69.47;99906.47;5078470;28;45295;-77
2023/09/20 03:07:46;;;;;;;;;2.00;2.00;;;;;19.01;69.34;99895.13;5078590;27;45426;-77
2023/09/20 03:10:13;;;;;;;;;2.00;2.00;;;;;19.14;69.02;99906.38;5078726;28;45256;-77
2023/09/20 03:12:44;;;;;;;;;1.00;1.00;;;;;19.13;69.13;99897.56;5078224;28;45481;-77
2023/09/20 03:15:21;;;;;;;;;2.33;2.00;;;;;19.11;68.70;99902.00;5078249;28;45453;-77
2023/09/20 03:17:52;;;;;;;;;1.67;1.67;;;;;19.10;68.94;99900.28;5078451;28;45470;-70
2023/09/20 03:20:32;;;;;;;;;2.00;2.00;;;;;19.10;68.93;99904.69;5078654;28;45366;-71
2023/09/20 03:23:02;;;;;;;;;1.67;1.67;;;;;19.02;69.17;99897.75;5078455;28;45516;-71
2023/09/20 03:25:28;;;;;;;;;0.33;0.33;;;;;19.09;68.88;99914.41;5078263;28;45437;-70
2023/09/20 03:27:55;;;;;;;;;1.00;1.00;;;;;19.05;68.86;99907.41;5078508;28;45478;-70
2023/09/20 03:30:21;;;;;;;;;1.00;1.00;;;;;18.97;68.93;99904.00;5078322;28;45441;-71
2023/09/20 03:32:48;;;;;;;;;2.00;1.67;;;;;18.96;68.91;99908.44;5077860;28;45864;-71
2023/09/20 03:35:14;;;;;;;;;1.33;1.00;;;;;18.92;69.29;99904.09;5078027;28;45371;-70
2023/09/20 03:37:41;;;;;;;;;1.00;1.00;;;;;18.93;69.26;99907.59;5059920;28;45477;-70
2023/09/20 03:40:16;;;;;;;;;1.67;1.67;;;;;18.90;68.82;99904.97;5078273;28;45283;-70
2023/09/20 03:42:42;;;;;;;;;2.00;1.00;;;;;18.89;69.40;99912.03;5077894;28;45579;-70
2023/09/20 03:45:11;;;;;;;;;1.00;1.00;;;;;18.86;69.47;99912.06;5077889;28;45380;-74
2023/09/20 03:47:38;;;;;;;;;2.67;2.00;;;;;18.81;69.52;99904.22;5077906;28;45569;-77
2023/09/20 03:50:05;;;;;;;;;2.00;1.00;;;;;18.79;69.41;99894.53;5078021;27;45371;-77
2023/09/20 03:52:30;;;;;;;;;1.00;1.00;;;;;18.85;69.31;99897.97;5077692;28;45447;-75
2023/09/20 03:54:57;;;;;;;;;2.00;2.00;;;;;18.86;69.41;99902.38;5076606;28;45453;-78
2023/09/20 03:57:24;;;;;;;;;2.00;2.00;;;;;18.87;69.05;99905.91;5059723;28;45384;-77
2023/09/20 03:59:54;;;;;;;;;2.67;1.00;;;;;18.86;68.96;99891.81;5077922;28;45478;-77
2023/09/20 04:02:23;;;;;;;;;3.00;2.00;;;;;18.82;69.44;99881.25;5077618;28;45211;-75
2023/09/20 04:04:53;;;;;;;;;3.00;3.00;;;;;18.79;69.31;99882.19;5077494;28;45563;-76
2023/09/20 04:07:19;;;;;;;;;3.33;2.33;;;;;18.83;69.64;99894.47;5077665;28;45410;-72
2023/09/20 04:09:45;;;;;;;;;2.00;2.00;;;;;18.83;69.41;99891.84;5077709;28;45481;-76
2023/09/20 04:12:12;;;;;;;;;1.00;1.00;;;;;18.68;69.37;99853.22;5077293;28;46099;-77
2023/09/20 04:14:38;;;;;;;;;2.00;2.00;;;;;18.89;69.45;99893.53;5077355;28;45480;-76
2023/09/20 04:17:07;;;;;;;;;2.00;2.00;;;;;18.94;69.46;99889.06;5077471;28;45557;-72
2023/09/20 04:19:33;;;;;;;;;2.00;2.00;;;;;18.98;69.42;99887.22;5077507;28;45418;-71
2023/09/20 04:22:04;;;;;;;;;3.00;2.00;;;;;18.86;69.95;99877.69;5059244;28;45775;-78
2023/09/20 04:24:35;;;;;;;;;3.00;2.00;;;;;18.85;69.20;99889.16;5076249;27;45566;-73
2023/09/20 04:27:04;;;;;;;;;2.67;2.00;;;;;18.76;69.62;99871.63;5059450;28;45492;-71
2023/09/20 04:29:31;;;;;;;;;2.33;2.33;;;;;18.83;69.91;99873.31;5077859;28;45460;-72
2023/09/20 04:31:57;;;;;;;;;2.00;2.00;;;;;18.84;69.87;99871.53;5077224;28;45376;-76
2023/09/20 04:34:23;;;;;;;;;2.00;2.00;;;;;18.91;70.55;99885.56;5077263;28;45311;-77
2023/09/20 04:36:51;;;;;;;;;3.00;2.33;;;;;18.88;70.19;99868.84;5077301;28;45339;-72
2023/09/20 04:39:17;;;;;;;;;1.67;1.67;;;;;18.93;70.38;99870.53;5059256;28;45620;-77
2023/09/20 04:41:43;;;;;;;;;3.00;3.00;;;;;18.96;70.47;99865.19;5077032;28;45489;-74
2023/09/20 04:44:08;;;;;;;;;3.00;3.00;;;;;19.00;70.10;99867.78;5076894;28;45504;-77
2023/09/20 04:46:39;;;;;;;;;3.00;2.00;;;;;18.96;70.56;99866.09;5077024;28;45489;-71
2023/09/20 04:49:05;;;;;;;;;3.00;2.67;;;;;18.99;69.92;99876.59;5077307;28;45394;-72
2023/09/20 04:51:33;;;;;;;;;2.67;1.67;;;;;18.98;69.63;99869.56;5078179;28;46087;-73
2023/09/20 04:53:59;;;;;;;;;3.00;3.00;;;;;19.03;69.61;99872.16;5080490;28;45469;-74
2023/09/20 04:56:28;;;;;;;;;3.67;3.00;;;;;19.04;69.45;99873.91;5080691;27;45261;-74
2023/09/20 04:58:57;;;;;;;;;4.00;4.00;;;;;19.10;69.53;99875.56;5080799;28;45322;-72
2023/09/20 05:01:23;;;;;;;;;2.67;2.00;;;;;19.18;69.36;99873.66;5080187;28;45465;-74
2023/09/20 05:03:50;;;;;;;;;2.67;2.33;;;;;19.26;68.95;99874.44;5080523;28;45253;-71
2023/09/20 05:06:18;;;;;;;;;3.00;2.00;;;;;19.28;68.72;99873.50;5080205;28;45273;-78
2023/09/20 05:08:44;;;;;;;;;1.33;1.33;;;;;19.33;68.63;99875.19;5079363;28;45415;-77
2023/09/20 05:11:10;;;;;;;;;3.33;2.00;;;;;19.35;68.47;99862.81;5079425;28;45465;-77
2023/09/20 05:13:39;;;;;;;;;4.00;3.00;;;;;19.31;68.59;99867.28;5079134;28;45433;-72
2023/09/20 05:16:05;;;;;;;;;3.00;3.00;;;;;19.23;68.99;99859.44;5079370;28;45406;-73
2023/09/20 05:18:31;;;;;;;;;3.00;3.00;;;;;19.11;69.34;99856.16;5079843;28;45224;-78
2023/09/20 05:20:56;;;;;;;;;3.00;3.00;;;;;19.11;69.30;99859.66;5079146;28;45312;-74
2023/09/20 05:23:22;;;;;;;;;2.00;2.00;;;;;19.14;69.59;99861.38;5061105;28;45962;-77
2023/09/20 05:25:48;;;;;;;;;4.00;3.00;;;;;19.16;69.12;99855.19;5079120;28;45465;-76
2023/09/20 05:28:15;;;;;;;;;2.67;2.00;;;;;19.18;69.07;99856.03;5060797;28;45632;-78
2023/09/20 05:30:46;;;;;;;;;3.00;2.00;;;;;18.96;69.51;99844.00;5079008;28;45560;-78
2023/09/20 05:33:13;;;;;;;;;1.33;1.33;;;;;18.86;69.71;99844.16;5069482;27;45378;-78
2023/09/20 05:35:39;;;;;;;;;3.00;3.00;;;;;18.92;69.28;99852.91;5079249;28;45278;-73
2023/09/20 05:38:12;;;;;;;;;3.67;2.00;;;;;18.98;69.33;99866.03;5079577;28;45968;-72
2023/09/20 05:40:37;;;;;;;;;2.33;2.33;;;;;18.93;69.52;99849.38;5057984;28;47069;-76
2023/09/20 05:43:06;;;;;;;;;3.00;2.67;;;;;19.01;69.82;99863.34;5079182;28;45498;-71
2023/09/20 05:45:34;;;;;;;;;3.00;3.00;;;;;19.03;69.44;99862.41;5079193;28;45410;-74
2023/09/20 05:48:03;;;;;;;;;3.00;3.00;;;;;19.06;69.33;99865.03;5069532;28;45618;-76
2023/09/20 05:50:35;;;;;;;;;3.67;3.67;;;;;19.02;68.91;99851.84;5078769;28;45308;-77
2023/09/20 05:53:03;;;;;;;;;3.00;3.00;;;;;19.08;68.86;99857.94;5076885;28;45496;-72
2023/09/20 05:55:33;;;;;;;;;2.00;2.00;;;;;19.11;68.52;99856.16;5078343;28;45373;-77
2023/09/20 05:58:00;;;;;;;;;5.00;3.00;;;;;19.14;68.71;99859.63;5056019;28;45605;-78
2023/09/20 06:00:26;;;;;;;;;4.00;3.00;;;;;19.14;68.37;99861.38;5078452;28;46223;-78
2023/09/20 06:02:53;;;;;;;;;3.67;3.00;;;;;19.15;68.86;99857.84;5077469;28;45301;-71
2023/09/20 06:05:19;;;;;;;;;2.67;2.67;;;;;19.16;69.34;99863.13;5078474;28;45343;-76
2023/09/20 06:07:45;;;;;;;;;3.00;3.00;;;;;19.16;69.17;99862.22;5078831;28;45481;-77
2023/09/20 06:10:17;;;;;;;;;3.00;3.00;;;;;19.27;68.48;99873.53;5060211;28;45630;-77
2023/09/20 06:12:42;;;;;;;;;3.33;3.33;;;;;19.34;68.33;99880.47;5076473;28;46285;-77
2023/09/20 06:15:13;;;;;;;;;3.00;2.00;;;;;19.38;67.99;99879.53;5078362;28;45449;-77
2023/09/20 06:17:40;;;;;;;;;4.00;3.00;;;;;19.13;68.32;99862.28;5075942;28;45502;-76
2023/09/20 06:20:12;;;;;;;;;2.67;2.67;;;;;19.27;68.43;99877.03;5078425;28;46072;-78
2023/09/20 06:22:42;;;;;;;;;3.67;3.00;;;;;19.34;68.23;99871.63;5068625;28;45355;-72
2023/09/20 06:25:07;;;;;;;;;3.00;3.00;;;;;19.42;68.06;99875.94;5052039;28;45479;-73
2023/09/20 06:27:34;;;;;;;;;3.00;3.00;;;;;19.47;68.02;99870.53;5078732;28;45509;-77
2023/09/20 06:30:05;;;;;;;;;3.00;3.00;;;;;19.50;67.60;99877.53;5078209;28;45552;-75
2023/09/20 06:32:33;;;;;;;;;4.00;3.33;;;;;19.51;68.02;99880.19;5077815;28;45367;-76
2023/09/20 06:34:59;;;;;;;;;3.00;3.00;;;;;19.49;67.89;99876.69;5075043;28;45486;-74
2023/09/20 06:37:25;;;;;;;;;4.00;3.33;;;;;19.40;67.86;99858.31;5078338;28;45252;-72
2023/09/20 06:39:51;;;;;;;;;3.67;3.00;;;;;19.51;68.38;99876.66;5077980;28;45426;-73
2023/09/20 06:42:17;;;;;;;;;6.33;6.33;;;;;19.64;67.98;99875.56;5077939;28;45327;-73
2023/09/20 06:44:44;;;;;;;;;6.33;6.00;;;;;19.68;67.84;99864.00;5078217;28;45600;-73
2023/09/20 06:47:09;;;;;;;;;5.67;5.00;;;;;19.76;67.43;99878.00;5078163;28;45551;-73
2023/09/20 06:49:38;;;;;;;;;3.33;3.00;;;;;19.75;67.82;99868.28;5078435;27;46142;-73
2023/09/20 06:52:05;;;;;;;;;3.00;3.00;;;;;19.81;67.41;99862.88;5078781;28;45269;-73
2023/09/20 06:54:31;;;;;;;;;2.67;2.67;;;;;19.99;67.08;99874.91;5078753;28;45305;-72
2023/09/20 06:57:02;;;;;;;;;6.00;4.33;;;;;20.14;66.56;99876.41;5078505;28;45419;-76
2023/09/20 06:59:32;;;;;;;;;12.25;12.25;;;;;20.26;66.18;99875.28;5078149;28;46013;-73
2023/09/20 07:01:59;;;;;;;;;11.50;10.25;;;;;20.36;65.68;99868.88;5078867;28;45348;-77
2023/09/20 07:04:25;;;;;;;;;7.33;6.67;;;;;20.51;65.26;99872.97;5061208;28;45375;-76
2023/09/20 07:07:05;;;;;;;;;5.67;5.33;;;;;20.65;65.14;99864.72;5078856;28;45459;-76
2023/09/20 07:09:31;;;;;;;;;4.00;3.67;;;;;20.76;64.98;99869.81;5060167;28;47072;-77
2023/09/20 07:12:01;;;;;;;;;3.67;2.67;;;;;20.90;64.75;99862.41;5080041;28;45442;-77
2023/09/20 07:14:31;;;;;;;;;1.67;1.67;;;;;21.02;64.03;99862.09;5078354;28;45349;-76
2023/09/20 07:16:57;;;;;;;;;4.33;3.33;;;;;21.20;63.51;99852.81;5079756;28;45528;-77
2023/09/20 07:19:26;;;;;;;;;3.00;3.00;;;;;21.28;62.93;99833.16;5079256;28;45352;-75
2023/09/20 07:21:52;;;;;;;;;2.33;2.33;;;;;21.45;62.21;99842.50;5079089;28;45391;-75
2023/09/20 07:24:24;;;;;;;;;3.33;3.00;;;;;21.59;62.56;99846.56;5073807;27;45264;-76
2023/09/20 07:26:51;;;;;;;;;3.00;2.67;;;;;21.64;62.35;99832.22;5078427;28;45493;-78
2023/09/20 07:29:17;;;;;;;;;3.00;3.00;;;;;21.83;61.51;99845.91;5093798;27;46283;-83
2023/09/20 07:31:45;;;;;;;;;3.00;3.00;;;;;23.85;58.43;99831.59;5077635;28;45381;-78
2023/09/20 07:34:13;;;;;;;;;3.67;3.67;;;;;26.58;51.70;99831.94;5078204;28;45454;-82
2023/09/20 07:36:43;;;;;;;;;3.00;2.00;;;;;28.66;46.54;99813.19;5061254;28;45655;-81
2023/09/20 07:39:17;;;;;;;;;3.00;2.00;;;;;30.31;44.41;99813.19;5078213;28;46536;-80
2023/09/20 07:41:50;;;;;;;;;3.00;2.00;;;;;31.75;41.13;99825.28;5078386;28;45334;-79
2023/09/20 07:44:17;;;;;;;;;3.00;3.00;;;;;32.89;38.85;99809.91;5094845;27;45361;-81
2023/09/20 07:46:43;;;;;;;;;2.33;1.67;;;;;34.02;39.82;99813.88;5079163;28;45307;-79
2023/09/20 07:49:10;;;;;;;;;2.00;2.00;;;;;35.00;36.85;99799.59;5078950;28;46135;-81
2023/09/20 07:51:39;;;;;;;;;1.33;1.33;;;;;35.94;36.05;99805.16;5078603;28;45496;-81
2023/09/20 07:54:09;;;;;;;;;0.67;0.67;;;;;36.70;34.49;99795.75;5077968;28;45563;-81
2023/09/20 07:56:35;;;;;;;;;2.33;1.67;;;;;37.31;31.23;99784.63;5078024;28;45516;-81
2023/09/20 07:59:03;;;;;;;;;2.00;1.00;;;;;37.85;30.88;99795.00;5078935;28;45469;-80
2023/09/20 08:01:32;;;;;;;;;1.33;1.00;;;;;38.42;29.99;99784.88;5078526;28;45316;-81
2023/09/20 08:03:59;;;;;;;;;1.00;0.00;;;;;38.86;29.00;99787.78;5060383;28;45449;-81
2023/09/20 08:06:33;;;;;;;;;1.33;0.67;;;;;39.33;27.98;99795.72;5061820;28;45583;-81
2023/09/20 08:09:00;;;;;;;;;2.00;2.00;;;;;39.73;27.68;99802.56;5080591;28;46337;-81
2023/09/20 08:11:26;;;;;;;;;3.33;1.67;;;;;39.60;27.75;99815.78;5081534;28;45398;-78
2023/09/20 08:13:56;;;;;;;;;3.67;1.67;;;;;39.97;28.12;99812.81;5063128;28;45409;-79
2023/09/20 08:16:24;;;;;;;;;1.00;1.00;;;;;40.41;28.50;99819.19;5081039;28;45488;-75
2023/09/20 08:21:35;;;;;;;;;2.33;2.33;;;;;41.03;25.53;99800.56;5077516;28;45493;-79
2023/09/20 09:00:47;;;;;;;;;1.67;1.33;;;;;44.16;24.02;99777.88;5077303;28;45420;-79
2023/09/20 09:03:06;;;;;;;;;2.67;2.00;;;;;44.44;22.25;99780.78;5074994;27;45685;-79
2023/09/20 09:05:32;;;;;;;;;3.00;2.00;;;;;44.11;22.71;99781.19;5076701;28;45771;-79
2023/09/20 09:08:01;;;;;;;;;3.67;3.00;;;;;43.98;22.97;99770.84;5076762;28;45315;-79
2023/09/20 09:10:27;;;;;;;;;1.67;1.67;;;;;43.77;23.56;99773.50;5076847;28;45410;-79
2023/09/20 09:12:53;;;;;;;;;2.33;2.33;;;;;43.97;23.46;99766.38;5076391;28;45950;-78
2023/09/20 09:15:18;;;;;;;;;3.33;3.00;;;;;43.42;23.09;99767.66;5076053;28;45327;-79
2023/09/20 09:17:46;;;;;;;;;2.67;2.67;;;;;43.62;22.72;99757.81;5076498;28;45403;-80
2023/09/20 09:20:14;;;;;;;;;2.00;2.00;;;;;43.26;23.29;99749.38;5076285;28;45353;-79
2023/09/20 09:22:40;;;;;;;;;3.00;2.00;;;;;43.10;23.60;99750.38;5057451;28;45604;-78
2023/09/20 09:25:14;;;;;;;;;2.00;2.00;;;;;43.06;23.87;99749.91;5076622;28;45414;-78
2023/09/20 09:27:41;;;;;;;;;2.00;2.00;;;;;42.91;22.86;99730.59;5076509;28;45596;-77
2023/09/20 09:30:16;;;;;;;;;2.00;2.00;;;;;42.72;23.68;99744.81;5076364;28;45418;-74
2023/09/20 09:32:43;;;;;;;;;2.67;2.00;;;;;42.61;24.35;99739.72;5091425;27;45646;-74
2023/09/20 09:35:10;;;;;;;;;1.33;1.33;;;;;42.57;23.84;99746.63;5076163;28;45532;-76
2023/09/20 09:37:37;;;;;;;;;5.33;5.33;;;;;42.23;23.62;99745.06;5077430;28;45329;-73
2023/09/20 09:40:05;;;;;;;;;1.67;1.00;;;;;41.91;24.83;99744.16;5079719;28;45352;-79
2023/09/20 09:42:31;;;;;;;;;3.00;3.00;;;;;41.96;24.60;99749.94;5078709;28;45570;-77
2023/09/20 09:45:04;;;;;;;;;1.00;1.00;;;;;42.04;23.91;99739.00;5077940;27;45312;-77
2023/09/20 09:47:30;;;;;;;;;1.67;1.33;;;;;42.03;24.43;99733.69;5095668;27;45325;-74
2023/09/20 09:49:58;;;;;;;;;2.67;2.67;;;;;42.08;24.87;99743.09;5079906;28;45256;-79
2023/09/20 09:52:24;;;;;;;;;2.00;2.00;;;;;41.46;24.65;99734.63;5079079;28;45951;-79
2023/09/20 09:54:52;;;;;;;;;3.33;3.00;;;;;41.00;24.10;99740.63;5079431;28;45298;-75
2023/09/20 09:57:18;;;;;;;;;2.00;2.00;;;;;40.87;25.05;99721.97;5079490;28;45412;-73
2023/09/20 09:59:48;;;;;;;;;4.00;4.00;;;;;40.96;25.09;99728.31;5060944;28;45411;-75
2023/09/20 10:02:22;;;;;;;;;3.67;3.33;;;;;40.59;25.12;99736.97;5079116;28;45959;-74
2023/09/20 10:04:59;;;;;;;;;5.00;5.00;;;;;40.39;25.48;99726.34;5079148;28;45411;-76
2023/09/20 10:07:30;;;;;;;;;2.50;2.50;;;;;40.23;25.67;99739.91;5079094;28;45232;-78
2023/09/20 10:10:08;;;;;;;;;1.00;1.00;;;;;40.15;25.53;99735.25;5079256;28;45470;-73
2023/09/20 10:12:36;;;;;;;;;2.00;2.00;;;;;39.88;25.52;99731.75;5078946;28;45356;-76
2023/09/20 10:15:06;;;;;;;;;3.00;2.33;;;;;39.89;25.18;99728.00;5078883;28;45390;-74
2023/09/20 10:17:32;;;;;;;;;3.00;3.00;;;;;39.91;25.39;99734.16;5079382;28;45354;-75
2023/09/20 10:19:58;;;;;;;;;3.00;3.00;;;;;39.82;25.16;99729.63;5078519;28;45360;-73
2023/09/20 10:22:25;;;;;;;;;2.67;2.67;;;;;39.65;25.58;99725.94;5078821;28;45410;-78
2023/09/20 10:24:54;;;;;;;;;4.00;3.33;;;;;39.55;25.75;99715.13;5079422;28;45268;-74
2023/09/20 10:27:27;;;;;;;;;3.33;3.00;;;;;39.57;25.82;99721.31;5061317;28;45508;-78
2023/09/20 10:30:09;;;;;;;;;2.33;2.00;;;;;39.33;26.57;99718.38;5079280;28;45584;-78
2023/09/20 10:32:37;;;;;;;;;2.00;2.00;;;;;38.87;26.09;99715.75;5078569;28;46224;-77
2023/09/20 10:35:30;;;;;;;;;2.00;2.00;;;;;38.39;27.38;99709.63;5078450;28;45391;-73
2023/09/20 10:38:08;;;;;;;;;5.67;5.67;;;;;38.36;27.86;99704.50;5094364;27;45495;-73
2023/09/20 10:40:45;;;;;;;;;2.67;2.00;;;;;38.27;26.76;99701.84;5079596;28;45252;-76
2023/09/20 10:43:20;;;;;;;;;2.67;2.33;;;;;38.21;27.62;99697.84;5060220;28;45295;-73
2023/09/20 10:45:54;;;;;;;;;3.00;3.00;;;;;37.91;27.43;99696.28;5093760;27;45284;-73
2023/09/20 10:48:29;;;;;;;;;4.33;4.33;;;;;37.91;27.98;99694.41;5078870;28;45293;-75
2023/09/20 10:50:58;;;;;;;;;2.33;2.33;;;;;37.67;26.93;99697.66;5059871;28;45470;-73
2023/09/20 10:53:45;;;;;;;;;3.00;3.00;;;;;37.26;27.76;99707.91;5078227;28;45640;-73
2023/09/20 10:56:31;;;;;;;;;3.33;3.33;;;;;37.05;27.88;99683.59;5078411;28;45453;-73
2023/09/20 10:58:59;;;;;;;;;2.00;2.00;;;;;36.92;28.32;99697.47;5078116;28;45291;-73
2023/09/20 11:01:25;;;;;;;;;3.67;3.33;;;;;36.52;28.54;99690.28;5078430;28;45491;-74
2023/09/20 11:03:53;;;;;;;;;3.00;3.00;;;;;36.44;28.82;99692.88;5078283;28;45465;-75
2023/09/20 11:06:19;;;;;;;;;5.00;4.00;;;;;36.31;29.49;99700.41;5084355;28;45460;-78
2023/09/20 11:08:44;;;;;;;;;2.00;2.00;;;;;36.20;29.47;99691.38;5070905;28;45282;-79
2023/09/20 11:11:16;;;;;;;;;2.67;2.67;;;;;36.02;29.65;99687.59;5082297;28;45596;-78
2023/09/20 11:13:47;;;;;;;;;4.00;3.00;;;;;36.10;29.55;99692.34;5062215;28;45299;-78
2023/09/20 11:16:13;;;;;;;;;2.00;2.00;;;;;36.19;29.46;99683.38;5078093;28;45501;-78
2023/09/20 11:18:41;;;;;;;;;1.00;1.00;;;;;36.11;27.85;99675.91;5059939;28;45285;-79
2023/09/20 11:21:07;;;;;;;;;2.00;1.33;;;;;36.02;28.45;99669.41;5078325;28;45416;-73
2023/09/20 11:23:34;;;;;;;;;2.33;2.33;;;;;35.92;29.45;99678.56;5078062;28;45426;-74
2023/09/20 11:26:00;;;;;;;;;3.33;3.00;;;;;35.55;29.65;99677.22;5042801;28;45319;-81
2023/09/20 11:28:27;;;;;;;;;2.00;2.00;;;;;35.42;28.76;99673.88;5059643;28;45339;-73
2023/09/20 11:30:53;;;;;;;;;0.00;0.00;;;;;35.22;29.82;99678.34;5078786;28;45252;-73
2023/09/20 11:33:29;;;;;;;;;2.00;2.00;;;;;35.11;29.07;99681.94;5062912;28;46399;-76
2023/09/20 11:35:55;;;;;;;;;1.00;0.33;;;;;34.77;29.24;99665.84;5083912;28;45276;-75
2023/09/20 11:38:22;;;;;;;;;1.00;1.00;;;;;34.79;29.13;99665.72;5078658;28;45327;-78
2023/09/20 11:40:48;;;;;;;;;3.33;2.00;;;;;34.77;28.52;99659.56;5077751;28;45424;-79
2023/09/20 11:43:20;;;;;;;;;2.00;2.00;;;;;34.68;28.66;99639.53;5077373;28;46182;-80
2023/09/20 11:45:47;;;;;;;;;2.00;2.00;;;;;34.53;29.09;99644.34;5059236;28;45391;-80
2023/09/20 11:48:13;;;;;;;;;4.67;4.00;;;;;34.62;29.49;99661.69;5077742;28;45504;-79
2023/09/20 11:50:45;;;;;;;;;3.67;3.33;;;;;34.54;29.83;99654.22;5077892;28;45328;-75
2023/09/20 11:53:15;;;;;;;;;2.00;2.00;;;;;34.46;29.20;99643.13;5059028;28;45554;-78
2023/09/20 11:55:44;;;;;;;;;4.00;4.00;;;;;34.56;29.19;99654.97;5077621;28;45267;-78
2023/09/20 11:58:10;;;;;;;;;1.00;1.00;;;;;34.58;29.06;99650.28;5093312;27;45419;-74
2023/09/20 12:00:36;;;;;;;;;1.67;1.67;;;;;34.54;29.14;99640.66;5058509;28;45201;-76
2023/09/20 12:03:03;;;;;;;;;1.67;1.67;;;;;34.33;30.30;99634.34;5092625;27;46433;-75
2023/09/20 12:05:29;;;;;;;;;3.00;3.00;;;;;34.16;30.43;99636.63;5077179;28;45544;-74
2023/09/20 12:07:59;;;;;;;;;3.67;3.33;;;;;34.04;30.74;99632.16;5078042;28;45350;-80
2023/09/20 12:10:26;;;;;;;;;1.33;1.33;;;;;33.95;30.83;99631.09;5077860;28;45308;-75
2023/09/20 12:12:53;;;;;;;;;2.00;2.00;;;;;34.07;30.54;99630.06;5059182;28;46830;-79
2023/09/20 12:15:22;;;;;;;;;0.00;0.00;;;;;34.20;30.47;99627.25;5059207;28;45438;-75
2023/09/20 12:17:51;;;;;;;;;3.67;3.67;;;;;34.32;30.16;99613.63;5093047;27;45365;-75